sensor_id;sensor_type;location;lat;lon;timestamp;pressure;altitude;pressure_sealevel;temperature;humidity
43436;BME280;36399;51.444;-2.018;2023-12-20T00:01:50;101592.34;;;3.83;100.00
43436;BME280;36399;51.444;-2.018;2023-12-20T00:04:16;101594.13;;;3.84;100.00
43436;BME280;36399;51.444;-2.018;2023-12-20T00:06:42;101590.97;;;4.04;100.00
43436;BME280;36399;51.444;-2.018;2023-12-20T00:09:08;101588.53;;;4.22;100.00
43436;BME280;36399;51.444;-2.018;2023-12-20T00:11:34;101577.19;;;4.36;100.00
43436;BME280;36399;51.444;-2.018;2023-12-20T00:14:00;101573.38;;;4.46;100.00
43436;BME280;36399;51.444;-2.018;2023-12-20T00:16:26;101574.44;;;4.50;100.00
43436;BME280;36399;51.444;-2.018;2023-12-20T00:18:52;101574.59;;;4.36;100.00
43436;BME280;36399;51.444;-2.018;2023-12-20T00:21:18;101572.63;;;4.32;100.00
43436;BME280;36399;51.444;-2.018;2023-12-20T00:23:44;101571.22;;;4.54;100.00
43436;BME280;36399;51.444;-2.018;2023-12-20T00:26:10;101580.47;;;4.49;100.00
43436;BME280;36399;51.444;-2.018;2023-12-20T00:28:36;101567.78;;;4.55;100.00
43436;BME280;36399;51.444;-2.018;2023-12-20T00:31:02;101567.56;;;4.66;100.00
43436;BME280;36399;51.444;-2.018;2023-12-20T00:33:28;101560.97;;;4.57;100.00
43436;BME280;36399;51.444;-2.018;2023-12-20T00:35:54;101563.38;;;4.68;100.00
43436;BME280;36399;51.444;-2.018;2023-12-20T00:38:21;101570.81;;;4.62;100.00
43436;BME280;36399;51.444;-2.018;2023-12-20T00:40:47;101562.91;;;4.61;100.00
43436;BME280;36399;51.444;-2.018;2023-12-20T00:43:13;101554.63;;;4.52;100.00
43436;BME280;36399;51.444;-2.018;2023-12-20T00:45:39;101553.97;;;4.56;100.00
43436;BME280;36399;51.444;-2.018;2023-12-20T00:48:05;101557.22;;;4.52;100.00
43436;BME280;36399;51.444;-2.018;2023-12-20T00:50:31;101563.25;;;4.51;100.00
43436;BME280;36399;51.444;-2.018;2023-12-20T00:52:57;101567.88;;;4.56;100.00
43436;BME280;36399;51.444;-2.018;2023-12-20T00:55:23;101569.66;;;4.57;100.00
43436;BME280;36399;51.444;-2.018;2023-12-20T00:57:49;101564.38;;;4.56;100.00
43436;BME280;36399;51.444;-2.018;2023-12-20T01:00:15;101567.97;;;4.58;100.00
43436;BME280;36399;51.444;-2.018;2023-12-20T01:02:41;101566.00;;;4.54;100.00
43436;BME280;36399;51.444;-2.018;2023-12-20T01:05:07;101566.25;;;4.58;100.00
43436;BME280;36399;51.444;-2.018;2023-12-20T01:07:35;101584.06;;;4.67;100.00
43436;BME280;36399;51.444;-2.018;2023-12-20T01:10:01;101582.91;;;4.62;100.00
43436;BME280;36399;51.444;-2.018;2023-12-20T01:12:27;101581.84;;;4.58;100.00
43436;BME280;36399;51.444;-2.018;2023-12-20T01:14:53;101587.63;;;4.53;100.00
43436;BME280;36399;51.444;-2.018;2023-12-20T01:17:19;101583.97;;;4.49;100.00
43436;BME280;36399;51.444;-2.018;2023-12-20T01:19:45;101572.09;;;4.54;100.00
43436;BME280;36399;51.444;-2.018;2023-12-20T01:22:11;101574.13;;;4.43;100.00
43436;BME280;36399;51.444;-2.018;2023-12-20T01:24:37;101579.56;;;4.48;100.00
43436;BME280;36399;51.444;-2.018;2023-12-20T01:27:03;101576.97;;;4.48;100.00
43436;BME280;36399;51.444;-2.018;2023-12-20T01:29:29;101573.81;;;4.54;100.00
43436;BME280;36399;51.444;-2.018;2023-12-20T01:31:55;101560.25;;;4.59;100.00
43436;BME280;36399;51.444;-2.018;2023-12-20T01:34:21;101568.13;;;4.61;100.00
43436;BME280;36399;51.444;-2.018;2023-12-20T01:36:47;101563.75;;;4.60;100.00
43436;BME280;36399;51.444;-2.018;2023-12-20T01:39:12;101561.31;;;4.63;100.00
43436;BME280;36399;51.444;-2.018;2023-12-20T01:41:39;101563.25;;;4.67;100.00
43436;BME280;36399;51.444;-2.018;2023-12-20T01:44:05;101553.38;;;4.76;100.00
43436;BME280;36399;51.444;-2.018;2023-12-20T01:46:31;101568.81;;;4.73;100.00
43436;BME280;36399;51.444;-2.018;2023-12-20T01:48:57;101562.63;;;4.71;100.00
43436;BME280;36399;51.444;-2.018;2023-12-20T01:51:25;101564.88;;;4.65;100.00
43436;BME280;36399;51.444;-2.018;2023-12-20T01:53:55;101567.06;;;4.57;100.00
43436;BME280;36399;51.444;-2.018;2023-12-20T01:56:22;101565.19;;;4.55;100.00
43436;BME280;36399;51.444;-2.018;2023-12-20T01:58:48;101571.38;;;4.57;100.00
43436;BME280;36399;51.444;-2.018;2023-12-20T02:01:15;101573.25;;;4.59;100.00
43436;BME280;36399;51.444;-2.018;2023-12-20T02:03:41;101563.09;;;4.64;100.00
43436;BME280;36399;51.444;-2.018;2023-12-20T02:06:09;101573.28;;;4.75;100.00
43436;BME280;36399;51.444;-2.018;2023-12-20T02:08:35;101567.69;;;4.84;100.00
43436;BME280;36399;51.444;-2.018;2023-12-20T02:11:02;101559.06;;;4.85;100.00
43436;BME280;36399;51.444;-2.018;2023-12-20T02:13:28;101560.34;;;4.93;100.00
43436;BME280;36399;51.444;-2.018;2023-12-20T02:15:54;101564.75;;;4.94;100.00
43436;BME280;36399;51.444;-2.018;2023-12-20T02:18:21;101564.81;;;4.96;100.00
43436;BME280;36399;51.444;-2.018;2023-12-20T02:20:47;101558.81;;;4.97;100.00
43436;BME280;36399;51.444;-2.018;2023-12-20T02:23:13;101552.72;;;4.96;100.00
43436;BME280;36399;51.444;-2.018;2023-12-20T02:25:39;101547.66;;;4.99;100.00
43436;BME280;36399;51.444;-2.018;2023-12-20T02:28:05;101543.50;;;5.03;100.00
43436;BME280;36399;51.444;-2.018;2023-12-20T02:30:32;101545.22;;;5.02;100.00
43436;BME280;36399;51.444;-2.018;2023-12-20T02:32:59;101544.88;;;5.13;100.00
43436;BME280;36399;51.444;-2.018;2023-12-20T02:35:26;101538.31;;;5.03;100.00
43436;BME280;36399;51.444;-2.018;2023-12-20T02:37:52;101524.31;;;5.01;100.00
43436;BME280;36399;51.444;-2.018;2023-12-20T02:40:18;101532.94;;;5.00;100.00
43436;BME280;36399;51.444;-2.018;2023-12-20T02:42:44;101531.16;;;4.99;100.00
43436;BME280;36399;51.444;-2.018;2023-12-20T02:45:10;101528.31;;;4.94;100.00
43436;BME280;36399;51.444;-2.018;2023-12-20T02:47:36;101522.06;;;4.91;100.00
43436;BME280;36399;51.444;-2.018;2023-12-20T02:50:02;101527.59;;;4.81;100.00
43436;BME280;36399;51.444;-2.018;2023-12-20T02:52:28;101531.34;;;4.86;100.00
43436;BME280;36399;51.444;-2.018;2023-12-20T02:54:54;101528.91;;;4.89;100.00
43436;BME280;36399;51.444;-2.018;2023-12-20T02:57:20;101521.16;;;4.90;100.00
43436;BME280;36399;51.444;-2.018;2023-12-20T02:59:46;101506.84;;;4.98;100.00
43436;BME280;36399;51.444;-2.018;2023-12-20T03:02:12;101507.75;;;4.99;100.00
43436;BME280;36399;51.444;-2.018;2023-12-20T03:04:38;101504.81;;;4.93;100.00
43436;BME280;36399;51.444;-2.018;2023-12-20T03:07:04;101517.91;;;4.94;100.00
43436;BME280;36399;51.444;-2.018;2023-12-20T03:09:30;101515.81;;;4.87;100.00
43436;BME280;36399;51.444;-2.018;2023-12-20T03:11:56;101519.38;;;4.89;100.00
43436;BME280;36399;51.444;-2.018;2023-12-20T03:14:22;101513.75;;;4.98;100.00
43436;BME280;36399;51.444;-2.018;2023-12-20T03:16:51;101525.22;;;5.01;100.00
43436;BME280;36399;51.444;-2.018;2023-12-20T03:19:20;101538.69;;;5.11;100.00
43436;BME280;36399;51.444;-2.018;2023-12-20T03:21:46;101542.13;;;5.26;100.00
43436;BME280;36399;51.444;-2.018;2023-12-20T03:24:12;101541.69;;;5.34;100.00
43436;BME280;36399;51.444;-2.018;2023-12-20T03:26:38;101539.94;;;5.51;100.00
43436;BME280;36399;51.444;-2.018;2023-12-20T03:29:04;101547.75;;;5.51;100.00
43436;BME280;36399;51.444;-2.018;2023-12-20T03:31:30;101536.81;;;5.58;100.00
43436;BME280;36399;51.444;-2.018;2023-12-20T03:33:55;101535.03;;;5.57;100.00
43436;BME280;36399;51.444;-2.018;2023-12-20T03:36:21;101534.22;;;5.58;100.00
43436;BME280;36399;51.444;-2.018;2023-12-20T03:38:47;101539.06;;;5.68;100.00
43436;BME280;36399;51.444;-2.018;2023-12-20T03:41:13;101526.84;;;5.67;100.00
43436;BME280;36399;51.444;-2.018;2023-12-20T03:43:39;101526.31;;;5.57;100.00
43436;BME280;36399;51.444;-2.018;2023-12-20T03:46:08;101523.50;;;5.52;100.00
43436;BME280;36399;51.444;-2.018;2023-12-20T03:48:34;101519.09;;;5.51;100.00
43436;BME280;36399;51.444;-2.018;2023-12-20T03:51:00;101520.97;;;5.54;100.00
43436;BME280;36399;51.444;-2.018;2023-12-20T03:53:26;101513.16;;;5.54;100.00
43436;BME280;36399;51.444;-2.018;2023-12-20T03:55:51;101503.63;;;5.54;100.00
43436;BME280;36399;51.444;-2.018;2023-12-20T03:58:17;101506.66;;;5.46;100.00
43436;BME280;36399;51.444;-2.018;2023-12-20T04:00:44;101500.50;;;5.44;100.00
43436;BME280;36399;51.444;-2.018;2023-12-20T04:03:10;101500.19;;;5.37;100.00
43436;BME280;36399;51.444;-2.018;2023-12-20T04:05:39;101500.78;;;5.32;100.00
43436;BME280;36399;51.444;-2.018;2023-12-20T04:08:07;101486.63;;;5.27;100.00
43436;BME280;36399;51.444;-2.018;2023-12-20T04:10:33;101498.09;;;5.30;100.00
43436;BME280;36399;51.444;-2.018;2023-12-20T04:12:59;101493.03;;;5.33;100.00
43436;BME280;36399;51.444;-2.018;2023-12-20T04:15:25;101497.50;;;5.36;100.00
43436;BME280;36399;51.444;-2.018;2023-12-20T04:17:51;101484.25;;;5.31;100.00
43436;BME280;36399;51.444;-2.018;2023-12-20T04:20:17;101478.16;;;5.31;100.00
43436;BME280;36399;51.444;-2.018;2023-12-20T04:22:43;101476.69;;;5.36;100.00
43436;BME280;36399;51.444;-2.018;2023-12-20T04:25:09;101478.47;;;5.37;100.00
43436;BME280;36399;51.444;-2.018;2023-12-20T04:27:35;101469.53;;;5.32;100.00
43436;BME280;36399;51.444;-2.018;2023-12-20T04:30:01;101451.53;;;5.36;100.00
43436;BME280;36399;51.444;-2.018;2023-12-20T04:32:27;101475.50;;;5.47;100.00
43436;BME280;36399;51.444;-2.018;2023-12-20T04:34:53;101474.91;;;5.53;100.00
43436;BME280;36399;51.444;-2.018;2023-12-20T04:37:19;101480.94;;;5.52;100.00
43436;BME280;36399;51.444;-2.018;2023-12-20T04:39:45;101481.16;;;5.56;100.00
43436;BME280;36399;51.444;-2.018;2023-12-20T04:42:11;101489.34;;;5.64;100.00
43436;BME280;36399;51.444;-2.018;2023-12-20T04:44:37;101495.44;;;5.64;100.00
43436;BME280;36399;51.444;-2.018;2023-12-20T04:47:03;101493.16;;;5.88;100.00
43436;BME280;36399;51.444;-2.018;2023-12-20T04:49:29;101490.06;;;5.95;100.00
43436;BME280;36399;51.444;-2.018;2023-12-20T04:51:55;101490.13;;;5.97;100.00
43436;BME280;36399;51.444;-2.018;2023-12-20T04:54:21;101493.97;;;6.05;100.00
43436;BME280;36399;51.444;-2.018;2023-12-20T04:56:47;101493.38;;;6.11;100.00
43436;BME280;36399;51.444;-2.018;2023-12-20T04:59:13;101495.22;;;6.13;100.00
43436;BME280;36399;51.444;-2.018;2023-12-20T05:01:39;101480.09;;;6.24;100.00
43436;BME280;36399;51.444;-2.018;2023-12-20T05:04:05;101481.44;;;6.33;100.00
43436;BME280;36399;51.444;-2.018;2023-12-20T05:06:31;101484.72;;;6.29;100.00
43436;BME280;36399;51.444;-2.018;2023-12-20T05:08:57;101464.06;;;6.34;100.00
43436;BME280;36399;51.444;-2.018;2023-12-20T05:11:23;101465.03;;;6.36;100.00
43436;BME280;36399;51.444;-2.018;2023-12-20T05:13:49;101464.75;;;6.30;100.00
43436;BME280;36399;51.444;-2.018;2023-12-20T05:16:15;101458.34;;;6.23;100.00
43436;BME280;36399;51.444;-2.018;2023-12-20T05:18:45;101450.91;;;6.13;100.00
43436;BME280;36399;51.444;-2.018;2023-12-20T05:21:11;101459.97;;;6.02;100.00
43436;BME280;36399;51.444;-2.018;2023-12-20T05:23:37;101460.72;;;5.99;100.00
43436;BME280;36399;51.444;-2.018;2023-12-20T05:26:03;101463.38;;;6.01;100.00
43436;BME280;36399;51.444;-2.018;2023-12-20T05:28:29;101477.00;;;6.13;100.00
43436;BME280;36399;51.444;-2.018;2023-12-20T05:30:55;101466.69;;;6.34;100.00
43436;BME280;36399;51.444;-2.018;2023-12-20T05:33:21;101466.97;;;6.40;100.00
43436;BME280;36399;51.444;-2.018;2023-12-20T05:35:47;101460.38;;;6.48;100.00
43436;BME280;36399;51.444;-2.018;2023-12-20T05:38:13;101462.28;;;6.52;100.00
43436;BME280;36399;51.444;-2.018;2023-12-20T05:40:40;101452.47;;;6.47;100.00
43436;BME280;36399;51.444;-2.018;2023-12-20T05:43:06;101442.03;;;6.47;100.00
43436;BME280;36399;51.444;-2.018;2023-12-20T05:45:32;101437.09;;;6.53;100.00
43436;BME280;36399;51.444;-2.018;2023-12-20T05:47:57;101420.34;;;6.48;100.00
43436;BME280;36399;51.444;-2.018;2023-12-20T05:50:24;101427.00;;;6.41;100.00
43436;BME280;36399;51.444;-2.018;2023-12-20T05:52:50;101429.56;;;6.40;100.00
43436;BME280;36399;51.444;-2.018;2023-12-20T05:55:16;101432.97;;;6.39;100.00
43436;BME280;36399;51.444;-2.018;2023-12-20T05:57:45;101432.97;;;6.39;100.00
43436;BME280;36399;51.444;-2.018;2023-12-20T06:00:12;101449.66;;;6.42;100.00
43436;BME280;36399;51.444;-2.018;2023-12-20T06:02:38;101451.50;;;6.45;100.00
43436;BME280;36399;51.444;-2.018;2023-12-20T06:05:05;101444.78;;;6.50;100.00
43436;BME280;36399;51.444;-2.018;2023-12-20T06:07:33;101446.97;;;6.41;100.00
43436;BME280;36399;51.444;-2.018;2023-12-20T06:09:59;101455.34;;;6.33;100.00
43436;BME280;36399;51.444;-2.018;2023-12-20T06:12:25;101455.06;;;6.27;100.00
43436;BME280;36399;51.444;-2.018;2023-12-20T06:14:52;101453.84;;;6.39;100.00
43436;BME280;36399;51.444;-2.018;2023-12-20T06:17:18;101464.69;;;6.48;100.00
43436;BME280;36399;51.444;-2.018;2023-12-20T06:19:44;101468.94;;;6.46;100.00
43436;BME280;36399;51.444;-2.018;2023-12-20T06:22:15;101462.63;;;6.41;100.00
43436;BME280;36399;51.444;-2.018;2023-12-20T06:24:40;101467.03;;;6.42;100.00
43436;BME280;36399;51.444;-2.018;2023-12-20T06:27:06;101458.50;;;6.46;100.00
43436;BME280;36399;51.444;-2.018;2023-12-20T06:29:32;101471.69;;;6.49;100.00
43436;BME280;36399;51.444;-2.018;2023-12-20T06:32:00;101462.63;;;6.41;100.00
43436;BME280;36399;51.444;-2.018;2023-12-20T06:34:26;101462.34;;;6.35;100.00
43436;BME280;36399;51.444;-2.018;2023-12-20T06:36:52;101455.63;;;6.40;100.00
43436;BME280;36399;51.444;-2.018;2023-12-20T06:39:18;101459.41;;;6.46;100.00
43436;BME280;36399;51.444;-2.018;2023-12-20T06:41:44;101455.34;;;6.53;100.00
43436;BME280;36399;51.444;-2.018;2023-12-20T06:44:10;101447.66;;;6.56;100.00
43436;BME280;36399;51.444;-2.018;2023-12-20T06:46:36;101453.28;;;6.65;100.00
43436;BME280;36399;51.444;-2.018;2023-12-20T06:49:01;101449.03;;;6.67;100.00
43436;BME280;36399;51.444;-2.018;2023-12-20T06:51:28;101453.63;;;6.73;100.00
43436;BME280;36399;51.444;-2.018;2023-12-20T06:53:54;101461.53;;;6.74;100.00
43436;BME280;36399;51.444;-2.018;2023-12-20T06:56:20;101459.06;;;6.77;100.00
43436;BME280;36399;51.444;-2.018;2023-12-20T06:58:46;101445.94;;;6.76;100.00
43436;BME280;36399;51.444;-2.018;2023-12-20T07:01:12;101441.34;;;6.70;100.00
43436;BME280;36399;51.444;-2.018;2023-12-20T07:03:39;101434.34;;;6.69;100.00
43436;BME280;36399;51.444;-2.018;2023-12-20T07:06:06;101427.34;;;6.68;100.00
43436;BME280;36399;51.444;-2.018;2023-12-20T07:08:32;101425.34;;;6.62;100.00
43436;BME280;36399;51.444;-2.018;2023-12-20T07:10:58;101412.94;;;6.57;100.00
43436;BME280;36399;51.444;-2.018;2023-12-20T07:13:24;101416.97;;;6.50;100.00
43436;BME280;36399;51.444;-2.018;2023-12-20T07:15:50;101409.34;;;6.55;100.00
43436;BME280;36399;51.444;-2.018;2023-12-20T07:18:16;101411.00;;;6.53;100.00
43436;BME280;36399;51.444;-2.018;2023-12-20T07:20:43;101415.53;;;6.57;100.00
43436;BME280;36399;51.444;-2.018;2023-12-20T07:23:09;101429.66;;;6.62;100.00
43436;BME280;36399;51.444;-2.018;2023-12-20T07:25:35;101426.38;;;6.66;100.00
43436;BME280;36399;51.444;-2.018;2023-12-20T07:28:01;101423.91;;;6.69;100.00
43436;BME280;36399;51.444;-2.018;2023-12-20T07:30:27;101428.22;;;6.69;100.00
43436;BME280;36399;51.444;-2.018;2023-12-20T07:32:53;101432.69;;;6.71;100.00
43436;BME280;36399;51.444;-2.018;2023-12-20T07:35:19;101422.53;;;6.77;100.00
43436;BME280;36399;51.444;-2.018;2023-12-20T07:37:45;101427.88;;;6.80;100.00
43436;BME280;36399;51.444;-2.018;2023-12-20T07:40:11;101427.06;;;6.81;100.00
43436;BME280;36399;51.444;-2.018;2023-12-20T07:42:37;101428.16;;;6.86;100.00
43436;BME280;36399;51.444;-2.018;2023-12-20T07:45:03;101435.34;;;6.92;100.00
43436;BME280;36399;51.444;-2.018;2023-12-20T07:47:29;101426.75;;;6.94;100.00
43436;BME280;36399;51.444;-2.018;2023-12-20T07:49:55;101430.59;;;7.03;100.00
43436;BME280;36399;51.444;-2.018;2023-12-20T07:52:23;101434.03;;;7.02;100.00
43436;BME280;36399;51.444;-2.018;2023-12-20T07:54:49;101437.59;;;7.04;100.00
43436;BME280;36399;51.444;-2.018;2023-12-20T07:57:15;101450.06;;;7.11;100.00
43436;BME280;36399;51.444;-2.018;2023-12-20T07:59:41;101456.25;;;7.13;100.00
43436;BME280;36399;51.444;-2.018;2023-12-20T08:02:07;101468.81;;;7.21;100.00
43436;BME280;36399;51.444;-2.018;2023-12-20T08:04:32;101454.72;;;7.18;100.00
43436;BME280;36399;51.444;-2.018;2023-12-20T08:06:58;101460.91;;;7.20;100.00
43436;BME280;36399;51.444;-2.018;2023-12-20T08:09:26;101460.91;;;7.20;100.00
43436;BME280;36399;51.444;-2.018;2023-12-20T08:11:51;101453.91;;;7.19;100.00
43436;BME280;36399;51.444;-2.018;2023-12-20T08:14:17;101454.22;;;7.26;100.00
43436;BME280;36399;51.444;-2.018;2023-12-20T08:16:45;101470.72;;;7.25;100.00
43436;BME280;36399;51.444;-2.018;2023-12-20T08:19:11;101470.72;;;7.25;100.00
43436;BME280;36399;51.444;-2.018;2023-12-20T08:21:37;101466.66;;;7.32;100.00
43436;BME280;36399;51.444;-2.018;2023-12-20T08:24:03;101474.63;;;7.35;100.00
43436;BME280;36399;51.444;-2.018;2023-12-20T08:26:29;101479.03;;;7.36;100.00
43436;BME280;36399;51.444;-2.018;2023-12-20T08:28:57;101470.69;;;7.45;100.00
43436;BME280;36399;51.444;-2.018;2023-12-20T08:31:22;101474.06;;;7.42;100.00
43436;BME280;36399;51.444;-2.018;2023-12-20T08:33:49;101467.19;;;7.44;100.00
43436;BME280;36399;51.444;-2.018;2023-12-20T08:36:15;101469.09;;;7.48;100.00
43436;BME280;36399;51.444;-2.018;2023-12-20T08:38:43;101463.97;;;7.51;100.00
43436;BME280;36399;51.444;-2.018;2023-12-20T08:41:09;101461.94;;;7.44;100.00
43436;BME280;36399;51.444;-2.018;2023-12-20T08:43:35;101452.19;;;7.40;100.00
43436;BME280;36399;51.444;-2.018;2023-12-20T08:46:01;101456.59;;;7.41;100.00
43436;BME280;36399;51.444;-2.018;2023-12-20T08:48:28;101453.28;;;7.45;100.00
43436;BME280;36399;51.444;-2.018;2023-12-20T08:50:54;101448.38;;;7.53;100.00
43436;BME280;36399;51.444;-2.018;2023-12-20T08:53:20;101459.00;;;7.57;100.00
43436;BME280;36399;51.444;-2.018;2023-12-20T08:55:46;101460.69;;;7.78;100.00
43436;BME280;36399;51.444;-2.018;2023-12-20T08:58:13;101459.41;;;7.89;100.00
43436;BME280;36399;51.444;-2.018;2023-12-20T09:00:39;101458.00;;;7.97;100.00
43436;BME280;36399;51.444;-2.018;2023-12-20T09:03:06;101444.94;;;7.97;100.00
43436;BME280;36399;51.444;-2.018;2023-12-20T09:05:31;101437.69;;;7.90;100.00
43436;BME280;36399;51.444;-2.018;2023-12-20T09:07:58;101435.94;;;7.90;100.00
43436;BME280;36399;51.444;-2.018;2023-12-20T09:10:24;101436.91;;;7.93;100.00
43436;BME280;36399;51.444;-2.018;2023-12-20T09:12:51;101426.63;;;7.97;100.00
43436;BME280;36399;51.444;-2.018;2023-12-20T09:15:17;101430.25;;;8.01;100.00
43436;BME280;36399;51.444;-2.018;2023-12-20T09:17:43;101427.56;;;7.99;100.00
43436;BME280;36399;51.444;-2.018;2023-12-20T09:20:09;101410.81;;;7.94;100.00
43436;BME280;36399;51.444;-2.018;2023-12-20T09:22:35;101429.19;;;7.96;100.00
43436;BME280;36399;51.444;-2.018;2023-12-20T09:25:04;101431.00;;;7.98;100.00
43436;BME280;36399;51.444;-2.018;2023-12-20T09:27:30;101436.47;;;8.04;100.00
43436;BME280;36399;51.444;-2.018;2023-12-20T09:29:57;101428.81;;;8.09;100.00
43436;BME280;36399;51.444;-2.018;2023-12-20T09:32:22;101429.59;;;8.06;100.00
43436;BME280;36399;51.444;-2.018;2023-12-20T09:34:48;101433.25;;;8.11;100.00
43436;BME280;36399;51.444;-2.018;2023-12-20T09:37:15;101427.03;;;8.08;100.00
43436;BME280;36399;51.444;-2.018;2023-12-20T09:39:40;101421.31;;;8.18;100.00
43436;BME280;36399;51.444;-2.018;2023-12-20T09:42:07;101410.69;;;8.36;100.00
43436;BME280;36399;51.444;-2.018;2023-12-20T09:44:34;101400.28;;;8.61;100.00
43436;BME280;36399;51.444;-2.018;2023-12-20T09:47:04;101400.28;;;8.61;100.00
43436;BME280;36399;51.444;-2.018;2023-12-20T09:49:30;101394.72;;;8.52;100.00
43436;BME280;36399;51.444;-2.018;2023-12-20T09:51:56;101405.78;;;8.45;100.00
43436;BME280;36399;51.444;-2.018;2023-12-20T09:54:23;101410.91;;;8.42;100.00
43436;BME280;36399;51.444;-2.018;2023-12-20T09:56:50;101414.19;;;8.36;100.00
43436;BME280;36399;51.444;-2.018;2023-12-20T09:59:16;101420.09;;;8.32;100.00
43436;BME280;36399;51.444;-2.018;2023-12-20T10:01:43;101425.56;;;8.37;100.00
43436;BME280;36399;51.444;-2.018;2023-12-20T10:04:10;101416.47;;;8.29;100.00
43436;BME280;36399;51.444;-2.018;2023-12-20T10:06:42;101428.72;;;8.30;100.00
43436;BME280;36399;51.444;-2.018;2023-12-20T10:09:09;101441.78;;;8.30;100.00
43436;BME280;36399;51.444;-2.018;2023-12-20T10:11:36;101443.53;;;8.29;100.00
43436;BME280;36399;51.444;-2.018;2023-12-20T10:14:06;101443.81;;;8.35;100.00
43436;BME280;36399;51.444;-2.018;2023-12-20T10:16:32;101429.00;;;8.36;100.00
43436;BME280;36399;51.444;-2.018;2023-12-20T10:18:59;101433.34;;;8.35;100.00
43436;BME280;36399;51.444;-2.018;2023-12-20T10:21:27;101429.97;;;8.38;100.00
43436;BME280;36399;51.444;-2.018;2023-12-20T10:23:54;101428.22;;;8.38;100.00
43436;BME280;36399;51.444;-2.018;2023-12-20T10:28:50;101432.03;;;8.46;100.00
43436;BME280;36399;51.444;-2.018;2023-12-20T10:31:46;101413.75;;;8.48;100.00
43436;BME280;36399;51.444;-2.018;2023-12-20T10:34:11;101426.06;;;8.50;100.00
43436;BME280;36399;51.444;-2.018;2023-12-20T10:36:37;101435.13;;;8.60;100.00
43436;BME280;36399;51.444;-2.018;2023-12-20T10:39:05;101426.34;;;8.58;100.00
43436;BME280;36399;51.444;-2.018;2023-12-20T10:41:34;101414.19;;;8.60;100.00
43436;BME280;36399;51.444;-2.018;2023-12-20T10:44:06;101405.66;;;8.66;100.00
43436;BME280;36399;51.444;-2.018;2023-12-20T10:46:34;101401.44;;;8.69;100.00
43436;BME280;36399;51.444;-2.018;2023-12-20T10:49:02;101395.47;;;8.73;100.00
43436;BME280;36399;51.444;-2.018;2023-12-20T10:51:28;101394.78;;;8.79;100.00
43436;BME280;36399;51.444;-2.018;2023-12-20T10:53:57;101387.22;;;8.87;100.00
43436;BME280;36399;51.444;-2.018;2023-12-20T10:56:23;101385.59;;;8.90;100.00
43436;BME280;36399;51.444;-2.018;2023-12-20T10:58:49;101382.19;;;8.93;100.00
43436;BME280;36399;51.444;-2.018;2023-12-20T11:01:17;101374.28;;;8.91;100.00
43436;BME280;36399;51.444;-2.018;2023-12-20T11:03:53;101362.13;;;8.93;100.00
43436;BME280;36399;51.444;-2.018;2023-12-20T11:09:26;101336.94;;;8.97;100.00
43436;BME280;36399;51.444;-2.018;2023-12-20T11:12:13;101344.16;;;9.04;100.00
43436;BME280;36399;51.444;-2.018;2023-12-20T11:14:55;101338.56;;;9.20;100.00
43436;BME280;36399;51.444;-2.018;2023-12-20T11:17:23;101316.88;;;9.24;100.00
43436;BME280;36399;51.444;-2.018;2023-12-20T11:22:22;101328.47;;;9.32;100.00
43436;BME280;36399;51.444;-2.018;2023-12-20T11:24:48;101319.63;;;9.29;100.00
43436;BME280;36399;51.444;-2.018;2023-12-20T11:27:16;101299.88;;;9.38;100.00
43436;BME280;36399;51.444;-2.018;2023-12-20T11:29:42;101306.88;;;9.39;100.00
43436;BME280;36399;51.444;-2.018;2023-12-20T11:35:00;101302.91;;;9.25;100.00
43436;BME280;36399;51.444;-2.018;2023-12-20T11:37:31;101291.59;;;9.26;100.00
43436;BME280;36399;51.444;-2.018;2023-12-20T11:40:16;101270.63;;;9.26;100.00
43436;BME280;36399;51.444;-2.018;2023-12-20T11:42:45;101271.66;;;9.31;100.00
43436;BME280;36399;51.444;-2.018;2023-12-20T11:45:16;101264.84;;;9.36;100.00
43436;BME280;36399;51.444;-2.018;2023-12-20T11:47:45;101266.66;;;9.37;100.00
43436;BME280;36399;51.444;-2.018;2023-12-20T11:50:11;101245.69;;;9.37;100.00
43436;BME280;36399;51.444;-2.018;2023-12-20T11:52:38;101264.16;;;9.42;100.00
43436;BME280;36399;51.444;-2.018;2023-12-20T11:55:04;101261.59;;;9.43;100.00
43436;BME280;36399;51.444;-2.018;2023-12-20T11:57:32;101260.16;;;9.55;100.00
43436;BME280;36399;51.444;-2.018;2023-12-20T11:59:58;101258.22;;;9.47;100.00
43436;BME280;36399;51.444;-2.018;2023-12-20T12:02:24;101257.94;;;9.38;100.00
43436;BME280;36399;51.444;-2.018;2023-12-20T12:04:50;101260.56;;;9.38;100.00
43436;BME280;36399;51.444;-2.018;2023-12-20T12:07:16;101251.00;;;9.40;100.00
43436;BME280;36399;51.444;-2.018;2023-12-20T12:09:43;101247.06;;;9.55;100.00
43436;BME280;36399;51.444;-2.018;2023-12-20T12:12:11;101234.22;;;9.64;100.00
43436;BME280;36399;51.444;-2.018;2023-12-20T12:14:38;101226.78;;;9.79;100.00
43436;BME280;36399;51.444;-2.018;2023-12-20T12:17:04;101219.09;;;9.85;100.00
43436;BME280;36399;51.444;-2.018;2023-12-20T12:19:30;101230.66;;;9.92;100.00
43436;BME280;36399;51.444;-2.018;2023-12-20T12:22:19;101212.25;;;9.90;100.00
43436;BME280;36399;51.444;-2.018;2023-12-20T12:24:46;101206.13;;;9.90;100.00
43436;BME280;36399;51.444;-2.018;2023-12-20T12:27:13;101207.63;;;9.81;100.00
43436;BME280;36399;51.444;-2.018;2023-12-20T12:29:39;101203.19;;;9.79;100.00
43436;BME280;36399;51.444;-2.018;2023-12-20T12:32:09;101182.28;;;9.82;100.00
43436;BME280;36399;51.444;-2.018;2023-12-20T12:34:36;101190.47;;;9.93;100.00
43436;BME280;36399;51.444;-2.018;2023-12-20T12:37:03;101182.69;;;9.96;100.00
43436;BME280;36399;51.444;-2.018;2023-12-20T12:39:29;101168.78;;;9.98;100.00
43436;BME280;36399;51.444;-2.018;2023-12-20T12:41:56;101179.25;;;9.98;100.00
43436;BME280;36399;51.444;-2.018;2023-12-20T12:44:23;101184.44;;;9.95;100.00
43436;BME280;36399;51.444;-2.018;2023-12-20T12:46:52;101177.56;;;10.00;100.00
43436;BME280;36399;51.444;-2.018;2023-12-20T12:49:20;101164.75;;;10.12;100.00